sensor_id;sensor_type;location;lat;lon;timestamp;P1;durP1;ratioP1;P2;durP2;ratioP2
1024;SDS011;501;48.214;11.350;2023-07-13T00:02:14;5.83;;;4.57;;
1024;SDS011;501;48.214;11.350;2023-07-13T00:04:40;6.43;;;3.97;;
1024;SDS011;501;48.214;11.350;2023-07-13T00:07:06;6.47;;;3.87;;
1024;SDS011;501;48.214;11.350;2023-07-13T00:09:34;6.93;;;4.03;;
1024;SDS011;501;48.214;11.350;2023-07-13T00:12:00;4.40;;;3.93;;
1024;SDS011;501;48.214;11.350;2023-07-13T00:14:27;5.40;;;4.20;;
1024;SDS011;501;48.214;11.350;2023-07-13T00:16:54;4.90;;;3.87;;
1024;SDS011;501;48.214;11.350;2023-07-13T00:19:20;4.37;;;3.57;;
1024;SDS011;501;48.214;11.350;2023-07-13T00:21:46;3.90;;;3.53;;
1024;SDS011;501;48.214;11.350;2023-07-13T00:24:13;4.17;;;3.77;;
1024;SDS011;501;48.214;11.350;2023-07-13T00:26:43;4.87;;;4.43;;
1024;SDS011;501;48.214;11.350;2023-07-13T00:29:12;6.47;;;4.30;;
1024;SDS011;501;48.214;11.350;2023-07-13T00:31:37;4.10;;;3.70;;
1024;SDS011;501;48.214;11.350;2023-07-13T00:34:03;4.67;;;4.27;;
1024;SDS011;501;48.214;11.350;2023-07-13T00:36:29;5.30;;;4.77;;
1024;SDS011;501;48.214;11.350;2023-07-13T00:38:55;4.17;;;3.87;;
1024;SDS011;501;48.214;11.350;2023-07-13T00:41:21;4.40;;;4.00;;
1024;SDS011;501;48.214;11.350;2023-07-13T00:43:47;6.90;;;4.03;;
1024;SDS011;501;48.214;11.350;2023-07-13T00:46:15;5.30;;;3.83;;
1024;SDS011;501;48.214;11.350;2023-07-13T00:48:40;3.90;;;3.60;;
1024;SDS011;501;48.214;11.350;2023-07-13T00:51:07;6.27;;;3.77;;
1024;SDS011;501;48.214;11.350;2023-07-13T00:53:35;5.13;;;4.67;;
1024;SDS011;501;48.214;11.350;2023-07-13T00:56:00;4.90;;;4.40;;
1024;SDS011;501;48.214;11.350;2023-07-13T00:58:27;4.57;;;4.17;;
1024;SDS011;501;48.214;11.350;2023-07-13T01:00:54;7.17;;;4.23;;
1024;SDS011;501;48.214;11.350;2023-07-13T01:03:19;4.93;;;3.93;;
1024;SDS011;501;48.214;11.350;2023-07-13T01:05:46;3.60;;;3.33;;
1024;SDS011;501;48.214;11.350;2023-07-13T01:08:14;4.23;;;3.57;;
1024;SDS011;501;48.214;11.350;2023-07-13T01:10:41;5.80;;;3.43;;
1024;SDS011;501;48.214;11.350;2023-07-13T01:13:15;4.40;;;3.00;;
1024;SDS011;501;48.214;11.350;2023-07-13T01:15:42;4.60;;;4.10;;
1024;SDS011;501;48.214;11.350;2023-07-13T01:18:10;3.70;;;3.30;;
1024;SDS011;501;48.214;11.350;2023-07-13T01:20:39;4.70;;;4.30;;
1024;SDS011;501;48.214;11.350;2023-07-13T01:23:06;7.07;;;4.07;;
1024;SDS011;501;48.214;11.350;2023-07-13T01:25:34;4.50;;;3.90;;
1024;SDS011;501;48.214;11.350;2023-07-13T01:28:01;5.23;;;3.80;;
1024;SDS011;501;48.214;11.350;2023-07-13T01:30:28;4.43;;;4.13;;
1024;SDS011;501;48.214;11.350;2023-07-13T01:32:54;5.47;;;4.40;;
1024;SDS011;501;48.214;11.350;2023-07-13T01:35:19;7.57;;;5.83;;
1024;SDS011;501;48.214;11.350;2023-07-13T01:37:45;6.20;;;5.50;;
1024;SDS011;501;48.214;11.350;2023-07-13T01:40:11;5.00;;;4.50;;
1024;SDS011;501;48.214;11.350;2023-07-13T01:42:37;4.80;;;4.33;;
1024;SDS011;501;48.214;11.350;2023-07-13T01:45:03;5.97;;;4.80;;
1024;SDS011;501;48.214;11.350;2023-07-13T01:47:29;5.23;;;4.70;;
1024;SDS011;501;48.214;11.350;2023-07-13T01:49:56;7.30;;;5.40;;
1024;SDS011;501;48.214;11.350;2023-07-13T01:52:22;5.73;;;5.10;;
1024;SDS011;501;48.214;11.350;2023-07-13T01:54:48;5.80;;;4.30;;
1024;SDS011;501;48.214;11.350;2023-07-13T01:57:13;10.10;;;5.20;;
1024;SDS011;501;48.214;11.350;2023-07-13T01:59:39;4.60;;;4.20;;
1024;SDS011;501;48.214;11.350;2023-07-13T02:02:04;6.13;;;5.10;;
1024;SDS011;501;48.214;11.350;2023-07-13T02:04:30;6.33;;;5.60;;
1024;SDS011;501;48.214;11.350;2023-07-13T02:06:56;5.57;;;5.07;;
1024;SDS011;501;48.214;11.350;2023-07-13T02:09:21;6.63;;;4.80;;
1024;SDS011;501;48.214;11.350;2023-07-13T02:11:47;9.03;;;6.30;;
1024;SDS011;501;48.214;11.350;2023-07-13T02:14:13;6.83;;;4.90;;
1024;SDS011;501;48.214;11.350;2023-07-13T02:16:40;11.53;;;6.00;;
1024;SDS011;501;48.214;11.350;2023-07-13T02:19:06;6.83;;;4.40;;
1024;SDS011;501;48.214;11.350;2023-07-13T02:21:33;5.47;;;4.97;;
1024;SDS011;501;48.214;11.350;2023-07-13T02:23:58;4.97;;;4.53;;
1024;SDS011;501;48.214;11.350;2023-07-13T02:26:25;8.20;;;5.47;;
1024;SDS011;501;48.214;11.350;2023-07-13T02:28:51;6.57;;;5.90;;
1024;SDS011;501;48.214;11.350;2023-07-13T02:31:17;6.20;;;5.70;;
1024;SDS011;501;48.214;11.350;2023-07-13T02:33:43;5.93;;;5.33;;
1024;SDS011;501;48.214;11.350;2023-07-13T02:36:09;8.53;;;6.10;;
1024;SDS011;501;48.214;11.350;2023-07-13T02:38:35;6.20;;;4.53;;
1024;SDS011;501;48.214;11.350;2023-07-13T02:41:04;6.60;;;5.93;;
1024;SDS011;501;48.214;11.350;2023-07-13T02:43:30;7.00;;;5.50;;
1024;SDS011;501;48.214;11.350;2023-07-13T02:45:56;5.47;;;4.87;;
1024;SDS011;501;48.214;11.350;2023-07-13T02:48:25;6.57;;;5.33;;
1024;SDS011;501;48.214;11.350;2023-07-13T02:50:51;5.17;;;4.67;;
1024;SDS011;501;48.214;11.350;2023-07-13T02:53:16;6.07;;;5.47;;
1024;SDS011;501;48.214;11.350;2023-07-13T02:55:42;8.90;;;5.23;;
1024;SDS011;501;48.214;11.350;2023-07-13T02:58:12;5.80;;;5.03;;
1024;SDS011;501;48.214;11.350;2023-07-13T03:00:41;6.60;;;4.90;;
1024;SDS011;501;48.214;11.350;2023-07-13T03:03:11;5.17;;;4.67;;
1024;SDS011;501;48.214;11.350;2023-07-13T03:05:40;5.60;;;4.50;;
1024;SDS011;501;48.214;11.350;2023-07-13T03:08:07;8.77;;;4.40;;
1024;SDS011;501;48.214;11.350;2023-07-13T03:10:34;8.70;;;4.40;;
1024;SDS011;501;48.214;11.350;2023-07-13T03:12:59;4.23;;;3.43;;
1024;SDS011;501;48.214;11.350;2023-07-13T03:15:25;5.03;;;3.73;;
1024;SDS011;501;48.214;11.350;2023-07-13T03:17:52;4.63;;;4.27;;
1024;SDS011;501;48.214;11.350;2023-07-13T03:20:18;4.30;;;3.90;;
1024;SDS011;501;48.214;11.350;2023-07-13T03:22:44;5.87;;;4.30;;
1024;SDS011;501;48.214;11.350;2023-07-13T03:25:10;4.20;;;3.27;;
1024;SDS011;501;48.214;11.350;2023-07-13T03:27:36;4.13;;;3.73;;
1024;SDS011;501;48.214;11.350;2023-07-13T03:30:03;5.47;;;3.83;;
1024;SDS011;501;48.214;11.350;2023-07-13T03:32:29;3.73;;;3.43;;
1024;SDS011;501;48.214;11.350;2023-07-13T03:34:55;6.00;;;4.63;;
1024;SDS011;501;48.214;11.350;2023-07-13T03:37:21;6.17;;;3.90;;
1024;SDS011;501;48.214;11.350;2023-07-13T03:39:46;4.77;;;4.23;;
1024;SDS011;501;48.214;11.350;2023-07-13T03:42:12;4.23;;;3.87;;
1024;SDS011;501;48.214;11.350;2023-07-13T03:44:38;4.40;;;4.00;;
1024;SDS011;501;48.214;11.350;2023-07-13T03:47:05;8.03;;;4.37;;
1024;SDS011;501;48.214;11.350;2023-07-13T03:49:31;6.17;;;3.60;;
1024;SDS011;501;48.214;11.350;2023-07-13T03:51:57;4.10;;;3.70;;
1024;SDS011;501;48.214;11.350;2023-07-13T03:54:23;5.43;;;4.00;;
1024;SDS011;501;48.214;11.350;2023-07-13T03:56:48;8.90;;;3.73;;
1024;SDS011;501;48.214;11.350;2023-07-13T03:59:14;4.30;;;3.57;;
1024;SDS011;501;48.214;11.350;2023-07-13T04:01:40;4.20;;;3.80;;
1024;SDS011;501;48.214;11.350;2023-07-13T04:04:05;6.80;;;3.60;;
1024;SDS011;501;48.214;11.350;2023-07-13T04:06:31;4.40;;;4.00;;
1024;SDS011;501;48.214;11.350;2023-07-13T04:08:58;3.93;;;3.63;;
1024;SDS011;501;48.214;11.350;2023-07-13T04:11:26;4.63;;;4.13;;
1024;SDS011;501;48.214;11.350;2023-07-13T04:13:53;6.13;;;4.40;;
1024;SDS011;501;48.214;11.350;2023-07-13T04:16:19;9.40;;;4.03;;
1024;SDS011;501;48.214;11.350;2023-07-13T04:18:46;4.73;;;3.63;;
1024;SDS011;501;48.214;11.350;2023-07-13T04:21:13;4.77;;;3.50;;
1024;SDS011;501;48.214;11.350;2023-07-13T04:23:38;3.83;;;3.30;;
1024;SDS011;501;48.214;11.350;2023-07-13T04:26:04;4.07;;;3.60;;
1024;SDS011;501;48.214;11.350;2023-07-13T04:28:31;3.67;;;3.37;;
1024;SDS011;501;48.214;11.350;2023-07-13T04:30:56;3.57;;;3.30;;
1024;SDS011;501;48.214;11.350;2023-07-13T04:33:22;3.73;;;3.43;;
1024;SDS011;501;48.214;11.350;2023-07-13T04:35:49;4.93;;;3.50;;
1024;SDS011;501;48.214;11.350;2023-07-13T04:38:21;5.70;;;3.07;;
1024;SDS011;501;48.214;11.350;2023-07-13T04:40:50;5.50;;;3.70;;
1024;SDS011;501;48.214;11.350;2023-07-13T04:43:17;3.33;;;3.13;;
1024;SDS011;501;48.214;11.350;2023-07-13T04:45:43;4.47;;;3.67;;
1024;SDS011;501;48.214;11.350;2023-07-13T04:48:08;3.97;;;3.57;;
1024;SDS011;501;48.214;11.350;2023-07-13T04:50:37;6.20;;;3.43;;
1024;SDS011;501;48.214;11.350;2023-07-13T04:53:03;5.03;;;3.57;;
1024;SDS011;501;48.214;11.350;2023-07-13T04:55:29;3.73;;;3.43;;
1024;SDS011;501;48.214;11.350;2023-07-13T04:57:55;4.47;;;4.00;;
1024;SDS011;501;48.214;11.350;2023-07-13T05:00:23;3.90;;;3.60;;
1024;SDS011;501;48.214;11.350;2023-07-13T05:02:49;3.87;;;3.47;;
1024;SDS011;501;48.214;11.350;2023-07-13T05:05:16;4.23;;;3.83;;
1024;SDS011;501;48.214;11.350;2023-07-13T05:07:41;4.77;;;3.70;;
1024;SDS011;501;48.214;11.350;2023-07-13T05:10:07;3.70;;;3.30;;
1024;SDS011;501;48.214;11.350;2023-07-13T05:12:33;5.27;;;3.00;;
1024;SDS011;501;48.214;11.350;2023-07-13T05:14:59;4.13;;;2.90;;
1024;SDS011;501;48.214;11.350;2023-07-13T05:17:24;4.47;;;3.70;;
1024;SDS011;501;48.214;11.350;2023-07-13T05:19:50;5.93;;;3.07;;
1024;SDS011;501;48.214;11.350;2023-07-13T05:22:15;4.20;;;3.80;;
1024;SDS011;501;48.214;11.350;2023-07-13T05:24:41;6.70;;;3.20;;
1024;SDS011;501;48.214;11.350;2023-07-13T05:27:07;4.77;;;3.60;;
1024;SDS011;501;48.214;11.350;2023-07-13T05:29:32;3.53;;;3.27;;
1024;SDS011;501;48.214;11.350;2023-07-13T05:31:58;3.97;;;3.53;;
1024;SDS011;501;48.214;11.350;2023-07-13T05:34:23;5.53;;;3.73;;
1024;SDS011;501;48.214;11.350;2023-07-13T05:36:49;7.27;;;3.40;;
1024;SDS011;501;48.214;11.350;2023-07-13T05:39:15;3.50;;;3.23;;
1024;SDS011;501;48.214;11.350;2023-07-13T05:41:41;4.77;;;3.53;;
1024;SDS011;501;48.214;11.350;2023-07-13T05:44:07;4.30;;;3.90;;
1024;SDS011;501;48.214;11.350;2023-07-13T05:46:33;4.20;;;3.80;;
1024;SDS011;501;48.214;11.350;2023-07-13T05:48:59;4.83;;;3.83;;
1024;SDS011;501;48.214;11.350;2023-07-13T05:51:24;6.10;;;3.70;;
1024;SDS011;501;48.214;11.350;2023-07-13T05:53:50;3.70;;;3.17;;
1024;SDS011;501;48.214;11.350;2023-07-13T05:56:16;5.43;;;2.97;;
1024;SDS011;501;48.214;11.350;2023-07-13T05:58:41;5.97;;;3.83;;
1024;SDS011;501;48.214;11.350;2023-07-13T06:01:09;6.20;;;3.57;;
1024;SDS011;501;48.214;11.350;2023-07-13T06:03:36;4.63;;;3.70;;
1024;SDS011;501;48.214;11.350;2023-07-13T06:06:05;4.97;;;3.47;;
1024;SDS011;501;48.214;11.350;2023-07-13T06:08:32;6.13;;;3.13;;
1024;SDS011;501;48.214;11.350;2023-07-13T06:13:38;4.83;;;2.97;;
1024;SDS011;501;48.214;11.350;2023-07-13T06:16:04;5.10;;;3.00;;
1024;SDS011;501;48.214;11.350;2023-07-13T06:18:31;3.37;;;3.07;;
1024;SDS011;501;48.214;11.350;2023-07-13T06:20:58;4.63;;;2.67;;
1024;SDS011;501;48.214;11.350;2023-07-13T06:23:24;10.27;;;3.47;;
1024;SDS011;501;48.214;11.350;2023-07-13T06:25:50;3.00;;;2.50;;
1024;SDS011;501;48.214;11.350;2023-07-13T06:28:16;5.20;;;2.80;;
1024;SDS011;501;48.214;11.350;2023-07-13T06:30:41;7.23;;;2.87;;
1024;SDS011;501;48.214;11.350;2023-07-13T06:33:07;3.80;;;2.50;;
1024;SDS011;501;48.214;11.350;2023-07-13T06:35:32;2.90;;;2.60;;
1024;SDS011;501;48.214;11.350;2023-07-13T06:37:58;2.83;;;2.40;;
1024;SDS011;501;48.214;11.350;2023-07-13T06:40:24;2.77;;;2.57;;
1024;SDS011;501;48.214;11.350;2023-07-13T06:42:50;10.80;;;2.93;;
1024;SDS011;501;48.214;11.350;2023-07-13T06:45:15;5.03;;;2.60;;
1024;SDS011;501;48.214;11.350;2023-07-13T06:47:41;2.97;;;2.50;;
1024;SDS011;501;48.214;11.350;2023-07-13T06:50:07;4.10;;;2.40;;
1024;SDS011;501;48.214;11.350;2023-07-13T06:52:32;2.60;;;2.40;;
1024;SDS011;501;48.214;11.350;2023-07-13T06:54:58;3.97;;;2.60;;
1024;SDS011;501;48.214;11.350;2023-07-13T06:57:24;3.30;;;2.97;;
1024;SDS011;501;48.214;11.350;2023-07-13T06:59:49;3.60;;;2.60;;
1024;SDS011;501;48.214;11.350;2023-07-13T07:02:15;3.80;;;2.93;;
1024;SDS011;501;48.214;11.350;2023-07-13T07:04:41;4.30;;;2.50;;
1024;SDS011;501;48.214;11.350;2023-07-13T07:07:06;2.73;;;2.50;;
1024;SDS011;501;48.214;11.350;2023-07-13T07:09:32;3.20;;;2.90;;
1024;SDS011;501;48.214;11.350;2023-07-13T07:11:57;3.37;;;2.50;;
1024;SDS011;501;48.214;11.350;2023-07-13T07:14:23;6.00;;;2.80;;
1024;SDS011;501;48.214;11.350;2023-07-13T07:16:49;3.73;;;2.83;;
1024;SDS011;501;48.214;11.350;2023-07-13T07:19:15;4.13;;;2.53;;
1024;SDS011;501;48.214;11.350;2023-07-13T07:21:41;6.03;;;2.80;;
1024;SDS011;501;48.214;11.350;2023-07-13T07:24:06;4.60;;;2.70;;
1024;SDS011;501;48.214;11.350;2023-07-13T07:26:32;5.33;;;3.17;;
1024;SDS011;501;48.214;11.350;2023-07-13T07:28:58;3.63;;;2.73;;
1024;SDS011;501;48.214;11.350;2023-07-13T07:31:24;3.90;;;2.30;;
1024;SDS011;501;48.214;11.350;2023-07-13T07:33:49;4.93;;;3.30;;
1024;SDS011;501;48.214;11.350;2023-07-13T07:36:15;5.30;;;3.17;;
1024;SDS011;501;48.214;11.350;2023-07-13T07:38:42;5.60;;;2.47;;
1024;SDS011;501;48.214;11.350;2023-07-13T07:41:08;7.07;;;3.00;;
1024;SDS011;501;48.214;11.350;2023-07-13T07:43:34;2.93;;;2.37;;
1024;SDS011;501;48.214;11.350;2023-07-13T07:46:00;8.60;;;2.10;;
1024;SDS011;501;48.214;11.350;2023-07-13T07:48:26;5.20;;;2.37;;
1024;SDS011;501;48.214;11.350;2023-07-13T07:50:52;3.00;;;2.53;;
1024;SDS011;501;48.214;11.350;2023-07-13T07:53:17;2.63;;;2.10;;
1024;SDS011;501;48.214;11.350;2023-07-13T07:55:43;7.13;;;2.57;;
1024;SDS011;501;48.214;11.350;2023-07-13T07:58:08;2.40;;;2.20;;
1024;SDS011;501;48.214;11.350;2023-07-13T08:00:34;2.80;;;2.50;;
1024;SDS011;501;48.214;11.350;2023-07-13T08:03:00;3.13;;;2.83;;
1024;SDS011;501;48.214;11.350;2023-07-13T08:05:26;2.90;;;2.60;;
1024;SDS011;501;48.214;11.350;2023-07-13T08:07:52;3.37;;;2.43;;
1024;SDS011;501;48.214;11.350;2023-07-13T08:10:17;3.43;;;2.27;;
1024;SDS011;501;48.214;11.350;2023-07-13T08:12:43;4.80;;;2.63;;
1024;SDS011;501;48.214;11.350;2023-07-13T08:15:10;2.30;;;2.10;;
1024;SDS011;501;48.214;11.350;2023-07-13T08:17:37;5.10;;;2.40;;
1024;SDS011;501;48.214;11.350;2023-07-13T08:20:03;3.33;;;2.27;;
1024;SDS011;501;48.214;11.350;2023-07-13T08:22:29;4.10;;;2.50;;
1024;SDS011;501;48.214;11.350;2023-07-13T08:24:55;4.90;;;2.20;;
1024;SDS011;501;48.214;11.350;2023-07-13T08:27:21;2.53;;;2.10;;
1024;SDS011;501;48.214;11.350;2023-07-13T08:29:51;2.20;;;1.80;;
1024;SDS011;501;48.214;11.350;2023-07-13T08:32:18;2.70;;;2.50;;
1024;SDS011;501;48.214;11.350;2023-07-13T08:34:45;4.63;;;2.63;;
1024;SDS011;501;48.214;11.350;2023-07-13T08:37:11;2.40;;;1.90;;
1024;SDS011;501;48.214;11.350;2023-07-13T08:39:37;5.93;;;2.83;;
1024;SDS011;501;48.214;11.350;2023-07-13T08:42:07;3.97;;;2.20;;
1024;SDS011;501;48.214;11.350;2023-07-13T08:47:36;3.17;;;2.47;;
1024;SDS011;501;48.214;11.350;2023-07-13T08:50:08;3.43;;;2.20;;
1024;SDS011;501;48.214;11.350;2023-07-13T08:52:39;1.87;;;1.77;;
1024;SDS011;501;48.214;11.350;2023-07-13T08:58:16;3.00;;;2.20;;
1024;SDS011;501;48.214;11.350;2023-07-13T09:03:27;3.07;;;2.30;;
1024;SDS011;501;48.214;11.350;2023-07-13T09:05:58;1.90;;;1.70;;
1024;SDS011;501;48.214;11.350;2023-07-13T09:11:18;3.37;;;2.20;;
1024;SDS011;501;48.214;11.350;2023-07-13T09:14:02;2.90;;;2.50;;
1024;SDS011;501;48.214;11.350;2023-07-13T09:16:42;2.43;;;1.57;;
1024;SDS011;501;48.214;11.350;2023-07-13T09:19:11;3.10;;;2.07;;
1024;SDS011;501;48.214;11.350;2023-07-13T09:21:43;5.03;;;2.40;;
1024;SDS011;501;48.214;11.350;2023-07-13T09:27:19;2.60;;;2.07;;
1024;SDS011;501;48.214;11.350;2023-07-13T09:29:50;3.60;;;2.20;;
1024;SDS011;501;48.214;11.350;2023-07-13T09:32:26;3.80;;;2.00;;
1024;SDS011;501;48.214;11.350;2023-07-13T09:34:53;2.10;;;1.97;;
1024;SDS011;501;48.214;11.350;2023-07-13T09:37:21;4.93;;;2.00;;
1024;SDS011;501;48.214;11.350;2023-07-13T09:39:48;5.43;;;2.10;;
1024;SDS011;501;48.214;11.350;2023-07-13T09:42:16;3.43;;;2.10;;
1024;SDS011;501;48.214;11.350;2023-07-13T09:44:50;1.87;;;1.70;;
1024;SDS011;501;48.214;11.350;2023-07-13T09:47:27;3.23;;;1.83;;
1024;SDS011;501;48.214;11.350;2023-07-13T09:50:09;2.50;;;1.67;;
1024;SDS011;501;48.214;11.350;2023-07-13T09:52:46;3.27;;;1.77;;
1024;SDS011;501;48.214;11.350;2023-07-13T09:55:23;1.87;;;1.50;;
1024;SDS011;501;48.214;11.350;2023-07-13T09:57:56;2.37;;;2.13;;
1024;SDS011;501;48.214;11.350;2023-07-13T10:00:23;2.23;;;1.50;;
1024;SDS011;501;48.214;11.350;2023-07-13T10:03:03;2.13;;;1.60;;
1024;SDS011;501;48.214;11.350;2023-07-13T10:05:37;3.73;;;2.03;;
1024;SDS011;501;48.214;11.350;2023-07-13T10:10:54;2.97;;;2.13;;
1024;SDS011;501;48.214;11.350;2023-07-13T10:13:29;3.20;;;1.70;;
1024;SDS011;501;48.214;11.350;2023-07-13T10:15:55;2.80;;;2.43;;
1024;SDS011;501;48.214;11.350;2023-07-13T10:18:22;4.67;;;1.83;;
1024;SDS011;501;48.214;11.350;2023-07-13T10:20:50;4.03;;;2.60;;
1024;SDS011;501;48.214;11.350;2023-07-13T10:23:23;3.20;;;1.90;;
1024;SDS011;501;48.214;11.350;2023-07-13T10:25:54;2.43;;;2.23;;
1024;SDS011;501;48.214;11.350;2023-07-13T10:30:53;2.83;;;2.20;;
1024;SDS011;501;48.214;11.350;2023-07-13T10:33:20;2.13;;;1.80;;
1024;SDS011;501;48.214;11.350;2023-07-13T10:35:46;4.30;;;2.23;;
1024;SDS011;501;48.214;11.350;2023-07-13T10:38:15;5.13;;;2.43;;
1024;SDS011;501;48.214;11.350;2023-07-13T10:41:01;5.20;;;2.50;;
1024;SDS011;501;48.214;11.350;2023-07-13T10:43:37;4.77;;;2.10;;
1024;SDS011;501;48.214;11.350;2023-07-13T10:46:08;2.63;;;2.20;;
1024;SDS011;501;48.214;11.350;2023-07-13T10:48:36;2.40;;;1.97;;
1024;SDS011;501;48.214;11.350;2023-07-13T10:51:04;2.87;;;2.40;;
1024;SDS011;501;48.214;11.350;2023-07-13T10:53:33;3.60;;;2.03;;
1024;SDS011;501;48.214;11.350;2023-07-13T10:56:10;2.70;;;2.07;;
1024;SDS011;501;48.214;11.350;2023-07-13T10:58:47;3.80;;;2.27;;
1024;SDS011;501;48.214;11.350;2023-07-13T11:01:25;2.30;;;1.90;;
1024;SDS011;501;48.214;11.350;2023-07-13T11:04:04;2.10;;;1.90;;
1024;SDS011;501;48.214;11.350;2023-07-13T11:06:37;2.53;;;2.33;;
1024;SDS011;501;48.214;11.350;2023-07-13T11:09:19;2.50;;;1.90;;
1024;SDS011;501;48.214;11.350;2023-07-13T11:12:08;3.10;;;1.97;;
1024;SDS011;501;48.214;11.350;2023-07-13T11:22:45;3.40;;;2.43;;
1024;SDS011;501;48.214;11.350;2023-07-13T11:30:34;3.80;;;2.13;;
1024;SDS011;501;48.214;11.350;2023-07-13T11:35:33;3.07;;;1.80;;
1024;SDS011;501;48.214;11.350;2023-07-13T11:38:01;2.00;;;1.80;;
1024;SDS011;501;48.214;11.350;2023-07-13T11:40:27;2.30;;;2.00;;
1024;SDS011;501;48.214;11.350;2023-07-13T11:43:01;2.97;;;2.10;;
1024;SDS011;501;48.214;11.350;2023-07-13T11:45:32;2.60;;;1.80;;
1024;SDS011;501;48.214;11.350;2023-07-13T11:47:58;1.80;;;1.70;;
1024;SDS011;501;48.214;11.350;2023-07-13T11:50:25;1.90;;;1.73;;
1024;SDS011;501;48.214;11.350;2023-07-13T11:52:52;3.13;;;1.93;;
1024;SDS011;501;48.214;11.350;2023-07-13T11:55:21;3.00;;;1.50;;
1024;SDS011;501;48.214;11.350;2023-07-13T11:57:50;6.07;;;1.83;;
1024;SDS011;501;48.214;11.350;2023-07-13T12:00:22;3.10;;;1.70;;
1024;SDS011;501;48.214;11.350;2023-07-13T12:02:53;1.70;;;1.60;;
1024;SDS011;501;48.214;11.350;2023-07-13T12:05:21;2.00;;;1.40;;
1024;SDS011;501;48.214;11.350;2023-07-13T12:07:47;2.13;;;1.50;;
1024;SDS011;501;48.214;11.350;2023-07-13T12:10:31;1.73;;;1.63;;
1024;SDS011;501;48.214;11.350;2023-07-13T12:13:01;2.17;;;1.83;;
1024;SDS011;501;48.214;11.350;2023-07-13T12:15:40;3.07;;;1.40;;
1024;SDS011;501;48.214;11.350;2023-07-13T12:18:18;1.80;;;1.70;;
1024;SDS011;501;48.214;11.350;2023-07-13T12:20:46;1.30;;;1.20;;
1024;SDS011;501;48.214;11.350;2023-07-13T12:23:31;2.20;;;1.67;;
1024;SDS011;501;48.214;11.350;2023-07-13T12:26:00;1.73;;;1.40;;
1024;SDS011;501;48.214;11.350;2023-07-13T12:29:28;3.37;;;1.90;;
1024;SDS011;501;48.214;11.350;2023-07-13T12:34:00;2.40;;;1.70;;
1024;SDS011;501;48.214;11.350;2023-07-13T12:36:34;4.20;;;2.40;;
1024;SDS011;501;48.214;11.350;2023-07-13T12:39:23;5.90;;;1.80;;
1024;SDS011;501;48.214;11.350;2023-07-13T12:42:09;2.30;;;1.80;;
1024;SDS011;501;48.214;11.350;2023-07-13T12:44:40;2.27;;;1.43;;
1024;SDS011;501;48.214;11.350;2023-07-13T12:47:09;6.87;;;1.50;;
1024;SDS011;501;48.214;11.350;2023-07-13T12:49:40;5.13;;;1.67;;
1024;SDS011;501;48.214;11.350;2023-07-13T12:52:20;2.63;;;1.57;;
1024;SDS011;501;48.214;11.350;2023-07-13T12:54:58;1.70;;;1.47;;
1024;SDS011;501;48.214;11.350;2023-07-13T12:57:29;3.63;;;1.53;;
1024;SDS011;501;48.214;11.350;2023-07-13T12:59:55;2.90;;;1.30;;
1024;SDS011;501;48.214;11.350;2023-07-13T13:02:25;3.00;;;1.73;;
1024;SDS011;501;48.214;11.350;2023-07-13T13:04:54;3.00;;;1.37;;
1024;SDS011;501;48.214;11.350;2023-07-13T13:07:21;2.50;;;2.23;;
1024;SDS011;501;48.214;11.350;2023-07-13T13:09:46;2.30;;;1.63;;
1024;SDS011;501;48.214;11.350;2023-07-13T13:12:12;2.17;;;1.57;;
1024;SDS011;501;48.214;11.350;2023-07-13T13:14:38;3.10;;;1.97;;
1024;SDS011;501;48.214;11.350;2023-07-13T13:17:04;2.70;;;1.40;;
1024;SDS011;501;48.214;11.350;2023-07-13T13:19:48;2.90;;;1.50;;
1024;SDS011;501;48.214;11.350;2023-07-13T13:22:15;4.63;;;1.67;;
1024;SDS011;501;48.214;11.350;2023-07-13T13:24:40;3.10;;;1.60;;
1024;SDS011;501;48.214;11.350;2023-07-13T13:27:09;4.53;;;2.10;;
1024;SDS011;501;48.214;11.350;2023-07-13T13:29:49;3.43;;;1.83;;
1024;SDS011;501;48.214;11.350;2023-07-13T13:32:17;2.10;;;1.73;;
1024;SDS011;501;48.214;11.350;2023-07-13T13:34:44;3.67;;;1.77;;
1024;SDS011;501;48.214;11.350;2023-07-13T13:37:17;2.10;;;1.77;;
1024;SDS011;501;48.214;11.350;2023-07-13T13:39:45;1.60;;;1.27;;
1024;SDS011;501;48.214;11.350;2023-07-13T13:42:11;1.70;;;1.60;;
1024;SDS011;501;48.214;11.350;2023-07-13T13:44:38;2.13;;;1.60;;
1024;SDS011;501;48.214;11.350;2023-07-13T13:47:03;1.90;;;1.53;;
1024;SDS011;501;48.214;11.350;2023-07-13T13:49:29;3.70;;;2.03;;
1024;SDS011;501;48.214;11.350;2023-07-13T13:51:56;2.30;;;2.10;;
1024;SDS011;501;48.214;11.350;2023-07-13T13:54:22;2.10;;;1.30;;
1024;SDS011;501;48.214;11.350;2023-07-13T13:56:51;1.80;;;1.50;;
1024;SDS011;501;48.214;11.350;2023-07-13T13:59:17;2.03;;;1.93;;
1024;SDS011;501;48.214;11.350;2023-07-13T14:01:44;2.07;;;1.77;;
1024;SDS011;501;48.214;11.350;2023-07-13T14:04:14;3.50;;;1.67;;
1024;SDS011;501;48.214;11.350;2023-07-13T14:06:42;2.63;;;1.40;;
1024;SDS011;501;48.214;11.350;2023-07-13T14:09:09;2.20;;;1.83;;
1024;SDS011;501;48.214;11.350;2023-07-13T14:11:40;3.20;;;1.73;;
1024;SDS011;501;48.214;11.350;2023-07-13T14:14:18;2.40;;;1.83;;
1024;SDS011;501;48.214;11.350;2023-07-13T14:16:48;5.67;;;2.00;;
1024;SDS011;501;48.214;11.350;2023-07-13T14:19:18;2.97;;;1.73;;
1024;SDS011;501;48.214;11.350;2023-07-13T14:21:44;3.03;;;2.20;;
1024;SDS011;501;48.214;11.350;2023-07-13T14:24:12;1.70;;;1.60;;
1024;SDS011;501;48.214;11.350;2023-07-13T14:26:39;2.30;;;1.53;;
1024;SDS011;501;48.214;11.350;2023-07-13T14:29:15;3.27;;;1.60;;
1024;SDS011;501;48.214;11.350;2023-07-13T14:31:43;2.87;;;1.83;;
1024;SDS011;501;48.214;11.350;2023-07-13T14:34:12;3.37;;;2.00;;
1024;SDS011;501;48.214;11.350;2023-07-13T14:36:40;3.47;;;1.60;;
1024;SDS011;501;48.214;11.350;2023-07-13T14:39:11;1.83;;;1.73;;
1024;SDS011;501;48.214;11.350;2023-07-13T14:41:39;7.57;;;1.60;;
1024;SDS011;501;48.214;11.350;2023-07-13T14:44:11;2.70;;;2.17;;
1024;SDS011;501;48.214;11.350;2023-07-13T14:46:38;3.00;;;1.87;;
1024;SDS011;501;48.214;11.350;2023-07-13T14:49:11;5.50;;;2.13;;
1024;SDS011;501;48.214;11.350;2023-07-13T14:51:38;1.70;;;1.57;;
1024;SDS011;501;48.214;11.350;2023-07-13T14:54:05;2.73;;;1.30;;
1024;SDS011;501;48.214;11.350;2023-07-13T14:56:33;3.07;;;1.37;;
1024;SDS011;501;48.214;11.350;2023-07-13T14:58:59;2.03;;;1.63;;
1024;SDS011;501;48.214;11.350;2023-07-13T15:01:25;2.10;;;1.90;;
1024;SDS011;501;48.214;11.350;2023-07-13T15:03:52;2.20;;;2.00;;
1024;SDS011;501;48.214;11.350;2023-07-13T15:06:18;3.40;;;2.13;;
1024;SDS011;501;48.214;11.350;2023-07-13T15:08:44;2.20;;;1.80;;
1024;SDS011;501;48.214;11.350;2023-07-13T15:11:11;1.90;;;1.70;;
1024;SDS011;501;48.214;11.350;2023-07-13T15:13:37;1.90;;;1.60;;
1024;SDS011;501;48.214;11.350;2023-07-13T15:16:04;2.87;;;1.80;;
1024;SDS011;501;48.214;11.350;2023-07-13T15:18:35;1.40;;;1.30;;
1024;SDS011;501;48.214;11.350;2023-07-13T15:21:04;1.77;;;1.67;;
1024;SDS011;501;48.214;11.350;2023-07-13T15:23:32;2.50;;;1.70;;
1024;SDS011;501;48.214;11.350;2023-07-13T15:25:58;5.70;;;2.27;;
1024;SDS011;501;48.214;11.350;2023-07-13T15:28:23;2.97;;;1.73;;
1024;SDS011;501;48.214;11.350;2023-07-13T15:30:49;2.83;;;1.90;;
1024;SDS011;501;48.214;11.350;2023-07-13T15:33:33;2.70;;;2.07;;
1024;SDS011;501;48.214;11.350;2023-07-13T15:35:58;3.00;;;1.83;;
1024;SDS011;501;48.214;11.350;2023-07-13T15:38:27;1.77;;;1.63;;
1024;SDS011;501;48.214;11.350;2023-07-13T15:40:54;2.33;;;1.63;;
1024;SDS011;501;48.214;11.350;2023-07-13T15:43:21;2.37;;;1.57;;
1024;SDS011;501;48.214;11.350;2023-07-13T15:45:48;1.60;;;1.50;;
1024;SDS011;501;48.214;11.350;2023-07-13T15:48:17;2.70;;;1.53;;
1024;SDS011;501;48.214;11.350;2023-07-13T15:50:50;1.93;;;1.73;;
1024;SDS011;501;48.214;11.350;2023-07-13T15:53:39;1.93;;;1.63;;
1024;SDS011;501;48.214;11.350;2023-07-13T15:56:10;2.10;;;1.90;;
1024;SDS011;501;48.214;11.350;2023-07-13T15:58:45;3.43;;;2.30;;
1024;SDS011;501;48.214;11.350;2023-07-13T16:01:11;2.80;;;2.07;;
1024;SDS011;501;48.214;11.350;2023-07-13T16:03:37;2.43;;;1.73;;